createdAt,value
2023-07-27T00:01:46.320Z,0.60
2023-07-27T00:40:48.433Z,0.40
2023-07-27T00:43:15.091Z,0.68
2023-07-27T00:45:41.944Z,0.65
2023-07-27T00:48:10.788Z,0.50
2023-07-27T00:50:38.236Z,0.43
2023-07-27T00:53:08.370Z,0.57
2023-07-27T00:55:36.134Z,0.50
2023-07-27T00:58:03.447Z,0.50
2023-07-27T01:00:32.181Z,0.52
2023-07-27T01:02:59.783Z,0.50
2023-07-27T01:05:26.736Z,0.50
2023-07-27T01:07:53.338Z,0.40
2023-07-27T01:10:26.362Z,0.40
2023-07-27T01:13:03.173Z,0.50
2023-07-27T01:15:33.476Z,0.40
2023-07-27T01:18:19.405Z,0.60
2023-07-27T01:21:06.021Z,0.55
2023-07-27T01:24:06.327Z,0.60
2023-07-27T01:26:54.622Z,0.60
2023-07-27T01:29:40.748Z,0.60
2023-07-27T01:32:10.559Z,0.60
2023-07-27T01:34:41.479Z,0.40
2023-07-27T01:37:10.676Z,0.57
2023-07-27T01:39:53.228Z,0.50
2023-07-27T01:42:21.026Z,0.70
2023-07-27T01:44:50.040Z,0.40
2023-07-27T01:47:18.730Z,0.43
2023-07-27T01:49:47.004Z,0.50
2023-07-27T01:52:16.320Z,0.80
2023-07-27T01:54:43.150Z,0.50
2023-07-27T01:57:11.167Z,0.50
2023-07-27T01:59:39.704Z,0.52
2023-07-27T02:02:07.818Z,0.65
2023-07-27T02:04:35.912Z,0.52
2023-07-27T02:07:02.605Z,0.50
2023-07-27T02:09:29.232Z,0.70
2023-07-27T02:12:01.176Z,0.55
2023-07-27T02:14:32.301Z,0.40
2023-07-27T02:17:02.812Z,0.60
2023-07-27T02:19:36.545Z,0.50
2023-07-27T02:22:04.378Z,0.60
2023-07-27T02:24:32.402Z,0.70
2023-07-27T02:26:59.404Z,0.60
2023-07-27T02:29:25.972Z,0.50
2023-07-27T02:31:52.531Z,0.50
2023-07-27T02:34:21.407Z,0.60
2023-07-27T02:36:48.096Z,0.50
2023-07-27T02:39:14.791Z,0.50
2023-07-27T02:41:41.537Z,0.80
2023-07-27T02:44:08.169Z,0.50
2023-07-27T02:46:34.992Z,0.60
2023-07-27T02:49:01.774Z,0.68
2023-07-27T02:51:28.345Z,0.50
2023-07-27T02:53:54.958Z,0.50
2023-07-27T02:56:21.570Z,0.60
2023-07-27T02:58:49.260Z,0.60
2023-07-27T03:01:15.820Z,0.40
2023-07-27T03:03:42.594Z,0.55
2023-07-27T03:06:09.319Z,0.35
2023-07-27T03:08:35.853Z,0.45
2023-07-27T03:11:04.297Z,0.70
2023-07-27T03:13:32.264Z,0.57
2023-07-27T03:16:01.050Z,0.68
2023-07-27T03:18:29.306Z,0.65
2023-07-27T03:20:55.875Z,0.50
2023-07-27T03:23:22.534Z,0.52
2023-07-27T03:25:50.723Z,0.90
2023-07-27T03:28:17.336Z,0.60
2023-07-27T03:30:44.249Z,0.65
2023-07-27T03:33:10.889Z,0.50
2023-07-27T03:35:37.566Z,0.57
2023-07-27T03:38:04.452Z,0.60
2023-07-27T03:40:31.197Z,0.82
2023-07-27T03:42:57.869Z,0.52
2023-07-27T03:45:24.452Z,0.70
2023-07-27T03:47:51.135Z,0.73
2023-07-27T03:50:17.976Z,0.65
2023-07-27T03:52:44.582Z,0.50
2023-07-27T03:55:11.188Z,0.60
2023-07-27T03:57:38.125Z,1.10
2023-07-27T04:00:06.280Z,0.88
2023-07-27T04:02:32.962Z,0.63
2023-07-27T04:04:59.675Z,0.50
2023-07-27T04:07:26.316Z,0.60
2023-07-27T04:09:52.940Z,0.50
2023-07-27T04:12:19.673Z,0.60
2023-07-27T04:14:46.301Z,0.50
2023-07-27T04:17:12.896Z,0.60
2023-07-27T04:19:39.566Z,0.70
2023-07-27T04:22:06.313Z,1.20
2023-07-27T04:24:33.082Z,0.73
2023-07-27T04:26:59.825Z,0.65
2023-07-27T04:29:26.541Z,0.68
2023-07-27T04:31:53.091Z,0.70
2023-07-27T04:34:19.729Z,0.80
2023-07-27T04:36:48.585Z,0.57
2023-07-27T04:39:16.613Z,0.68
2023-07-27T04:41:43.293Z,0.60
2023-07-27T04:44:10.053Z,0.70
2023-07-27T04:46:37.084Z,0.77
2023-07-27T04:49:04.187Z,0.60
2023-07-27T04:51:30.870Z,0.60
2023-07-27T04:53:57.451Z,0.95
2023-07-27T04:56:24.126Z,0.93
2023-07-27T04:58:50.835Z,0.80
2023-07-27T05:01:17.538Z,0.80
2023-07-27T05:03:44.680Z,0.60
2023-07-27T05:06:11.270Z,0.60
2023-07-27T05:08:37.864Z,0.73
2023-07-27T05:11:07.224Z,0.80
2023-07-27T05:13:36.563Z,0.63
2023-07-27T05:16:04.278Z,0.95
2023-07-27T05:18:30.999Z,0.77
2023-07-27T05:21:00.588Z,0.65
2023-07-27T05:25:54.704Z,1.70
2023-07-27T05:28:21.447Z,0.57
2023-07-27T05:30:48.044Z,0.47
2023-07-27T05:33:15.003Z,0.80
2023-07-27T05:35:41.626Z,0.60
2023-07-27T05:38:08.196Z,0.90
2023-07-27T05:40:38.563Z,0.88
2023-07-27T05:43:06.235Z,0.70
2023-07-27T05:45:32.955Z,0.70
2023-07-27T05:48:02.545Z,0.73
2023-07-27T05:50:29.393Z,0.80
2023-07-27T05:52:56.140Z,0.60
2023-07-27T05:55:22.815Z,0.75
2023-07-27T05:57:49.389Z,0.70
2023-07-27T06:00:20.035Z,0.70
2023-07-27T06:02:46.807Z,0.57
2023-07-27T06:05:13.640Z,0.95
2023-07-27T06:07:40.308Z,0.70
2023-07-27T06:10:07.478Z,0.80
2023-07-27T06:12:34.171Z,1.00
2023-07-27T06:15:00.917Z,0.80
2023-07-27T06:17:29.250Z,0.80
2023-07-27T06:22:22.385Z,1.45
2023-07-27T06:24:49.036Z,0.60
2023-07-27T06:27:15.773Z,0.70
2023-07-27T06:29:42.395Z,1.10
2023-07-27T06:32:09.340Z,0.68
2023-07-27T06:34:36.157Z,0.90
2023-07-27T06:37:02.939Z,0.60
2023-07-27T06:39:29.586Z,0.75
2023-07-27T06:41:56.784Z,0.95
2023-07-27T06:44:23.308Z,0.80
2023-07-27T06:46:49.999Z,0.65
2023-07-27T06:49:16.676Z,0.85
2023-07-27T06:51:43.487Z,0.90
2023-07-27T06:54:10.186Z,0.70
2023-07-27T06:56:36.892Z,0.70
2023-07-27T06:59:03.722Z,0.60
2023-07-27T07:01:30.478Z,0.65
2023-07-27T07:03:57.151Z,0.68
2023-07-27T07:06:23.791Z,0.90
2023-07-27T07:08:50.414Z,0.98
2023-07-27T07:11:16.993Z,0.80
2023-07-27T07:13:43.633Z,0.63
2023-07-27T07:16:11.985Z,0.65
2023-07-27T07:18:38.610Z,0.80
2023-07-27T07:21:05.256Z,0.80
2023-07-27T07:23:31.864Z,0.70
2023-07-27T07:25:58.759Z,0.80
2023-07-27T07:28:25.378Z,0.70
2023-07-27T07:30:52.369Z,0.70
2023-07-27T07:33:19.033Z,0.80
2023-07-27T07:35:45.672Z,0.70
2023-07-27T07:38:12.243Z,0.90
2023-07-27T07:40:38.917Z,0.70
2023-07-27T07:43:07.211Z,0.68
2023-07-27T07:45:35.065Z,0.88
2023-07-27T07:48:01.817Z,0.80
2023-07-27T07:50:28.493Z,0.60
2023-07-27T07:52:56.425Z,0.70
2023-07-27T07:55:23.153Z,0.70
2023-07-27T07:57:49.806Z,0.70
2023-07-27T08:00:16.909Z,0.60
2023-07-27T08:02:43.596Z,0.60
2023-07-27T08:05:10.456Z,0.60
2023-07-27T08:07:37.230Z,0.60
2023-07-27T08:10:05.549Z,0.70
2023-07-27T08:12:32.681Z,0.70
2023-07-27T08:14:59.508Z,0.60
2023-07-27T08:17:29.494Z,0.68
2023-07-27T08:19:56.708Z,0.70
2023-07-27T08:22:23.663Z,0.60
2023-07-27T08:24:50.946Z,0.50
2023-07-27T08:27:19.404Z,0.70
2023-07-27T08:29:46.034Z,0.77
2023-07-27T08:32:12.763Z,0.70
2023-07-27T08:34:39.373Z,0.70
2023-07-27T08:37:06.029Z,0.70
2023-07-27T08:39:32.681Z,1.25
2023-07-27T08:42:00.017Z,0.73
2023-07-27T08:44:27.121Z,0.65
2023-07-27T08:46:54.668Z,0.70
2023-07-27T08:49:21.476Z,0.80
2023-07-27T08:51:48.238Z,0.70
2023-07-27T08:54:15.897Z,0.82
2023-07-27T08:59:09.383Z,0.80
2023-07-27T09:01:36.153Z,0.70
2023-07-27T09:04:02.907Z,0.80
2023-07-27T09:06:47.277Z,0.80
2023-07-27T09:09:14.570Z,1.00
2023-07-27T09:11:44.533Z,0.77
2023-07-27T09:14:12.589Z,0.70
2023-07-27T09:16:39.341Z,0.80
2023-07-27T09:19:06.869Z,0.90
2023-07-27T09:21:48.812Z,0.70
2023-07-27T09:24:17.178Z,0.60
2023-07-27T09:26:48.211Z,0.73
2023-07-27T09:29:18.732Z,0.90
2023-07-27T09:31:50.972Z,0.88
2023-07-27T09:34:19.859Z,0.70
2023-07-27T09:36:47.407Z,0.80
2023-07-27T09:39:16.232Z,0.80
2023-07-27T09:41:47.731Z,1.00
2023-07-27T09:44:19.232Z,0.80
2023-07-27T09:46:46.861Z,0.88
2023-07-27T09:51:40.745Z,1.00
2023-07-27T09:54:08.030Z,0.73
2023-07-27T09:56:35.506Z,0.90
2023-07-27T09:59:02.405Z,0.85
2023-07-27T10:01:29.108Z,1.05
2023-07-27T10:03:59.614Z,0.80
2023-07-27T10:06:30.929Z,0.70
2023-07-27T10:08:57.825Z,0.70
2023-07-27T10:11:52.551Z,0.90
2023-07-27T10:14:20.314Z,0.80
2023-07-27T10:17:08.342Z,0.90
2023-07-27T10:19:43.788Z,0.70
2023-07-27T10:22:15.527Z,0.88
2023-07-27T10:24:59.457Z,0.95
2023-07-27T10:27:29.276Z,0.65
2023-07-27T10:30:11.601Z,0.75
2023-07-27T10:32:38.993Z,0.80
2023-07-27T10:35:09.522Z,1.00
2023-07-27T10:37:55.307Z,0.82
2023-07-27T10:40:31.705Z,0.70
2023-07-27T10:42:59.771Z,0.70
2023-07-27T10:45:28.061Z,0.80
2023-07-27T10:47:58.389Z,1.08
2023-07-27T10:50:25.349Z,0.80
2023-07-27T10:52:56.710Z,1.00
2023-07-27T10:55:23.710Z,0.90
2023-07-27T10:57:57.946Z,0.90
2023-07-27T11:00:34.991Z,0.90
2023-07-27T11:03:01.794Z,0.70
2023-07-27T11:05:30.141Z,0.82
2023-07-27T11:08:03.387Z,0.60
2023-07-27T11:10:32.219Z,0.93
2023-07-27T11:12:58.965Z,0.93
2023-07-27T11:15:30.714Z,0.70
2023-07-27T11:18:00.995Z,0.75
2023-07-27T11:20:30.053Z,0.80
2023-07-27T11:22:58.138Z,1.10
2023-07-27T11:25:25.360Z,0.80
2023-07-27T11:27:53.384Z,0.80
2023-07-27T11:30:23.417Z,0.80
2023-07-27T11:32:58.929Z,0.73
2023-07-27T11:35:25.744Z,0.70
2023-07-27T11:37:52.440Z,0.80
2023-07-27T11:40:22.653Z,1.10
2023-07-27T11:42:49.250Z,0.80
2023-07-27T11:45:16.366Z,0.80
2023-07-27T11:47:43.175Z,0.80
2023-07-27T11:50:12.766Z,0.63
2023-07-27T11:52:40.929Z,0.90
2023-07-27T11:55:09.161Z,1.27
2023-07-27T11:57:35.858Z,0.80
2023-07-27T12:00:07.330Z,0.98
2023-07-27T12:02:34.627Z,0.90
2023-07-27T12:05:02.100Z,0.70
2023-07-27T12:08:07.967Z,0.82
2023-07-27T12:10:30.429Z,0.80
2023-07-27T12:15:33.162Z,0.98
2023-07-27T12:18:06.154Z,0.80
2023-07-27T12:30:33.985Z,0.88
2023-07-27T12:33:00.769Z,0.90
2023-07-27T12:35:29.582Z,1.05
2023-07-27T12:37:57.394Z,0.80
2023-07-27T12:42:55.662Z,0.80
2023-07-27T12:45:22.548Z,0.90
2023-07-27T12:47:49.793Z,1.05
2023-07-27T12:50:17.173Z,0.73
2023-07-27T12:52:44.417Z,0.70
2023-07-27T12:55:14.033Z,0.75
2023-07-27T12:57:41.310Z,0.80
2023-07-27T13:00:17.494Z,0.90
2023-07-27T13:02:44.786Z,0.77
2023-07-27T13:05:13.890Z,1.53
2023-07-27T13:07:42.874Z,0.93
2023-07-27T13:10:10.697Z,0.90
2023-07-27T13:12:38.353Z,0.95
2023-07-27T13:15:05.504Z,0.98
2023-07-27T13:17:32.875Z,1.25
2023-07-27T13:19:59.453Z,1.00
2023-07-27T13:22:26.159Z,0.85
2023-07-27T13:24:52.926Z,1.00
2023-07-27T13:27:19.524Z,1.13
2023-07-27T13:29:46.162Z,0.90
2023-07-27T13:32:12.798Z,1.00
2023-07-27T13:34:39.612Z,0.73
2023-07-27T13:37:07.724Z,0.80
2023-07-27T13:42:01.933Z,0.93
2023-07-27T13:44:28.700Z,1.00
2023-07-27T13:46:55.280Z,1.10
2023-07-27T13:49:22.052Z,0.90
2023-07-27T13:51:49.143Z,0.90
2023-07-27T13:54:15.774Z,1.10
2023-07-27T13:56:42.430Z,1.00
2023-07-27T13:59:09.036Z,0.88
2023-07-27T14:01:35.906Z,1.10
2023-07-27T14:04:02.795Z,0.95
2023-07-27T14:06:29.454Z,0.88
2023-07-27T14:08:56.974Z,1.15
2023-07-27T14:11:25.773Z,1.00
2023-07-27T14:13:52.413Z,1.13
2023-07-27T14:16:21.958Z,1.40
2023-07-27T14:18:48.637Z,1.05
2023-07-27T14:21:15.505Z,1.00
2023-07-27T14:23:42.139Z,0.93
2023-07-27T14:26:09.254Z,1.00
2023-07-27T14:28:38.956Z,0.98
2023-07-27T14:31:12.343Z,1.13
2023-07-27T14:33:40.465Z,0.93
2023-07-27T14:36:07.184Z,1.13
2023-07-27T14:38:33.842Z,0.98
2023-07-27T14:41:00.639Z,0.90
2023-07-27T14:43:27.288Z,1.00
2023-07-27T14:45:53.979Z,1.08
2023-07-27T14:48:22.021Z,1.08
2023-07-27T14:53:17.229Z,1.00
2023-07-27T14:55:45.511Z,1.00
2023-07-27T14:58:17.362Z,0.90
2023-07-27T15:00:51.808Z,1.10
2023-07-27T15:03:22.778Z,1.00
2023-07-27T15:05:52.810Z,1.30
2023-07-27T15:08:19.704Z,0.93
2023-07-27T15:10:46.722Z,1.30
2023-07-27T15:13:13.456Z,1.00
2023-07-27T15:15:40.135Z,1.10
2023-07-27T15:18:09.374Z,0.93
2023-07-27T15:20:43.664Z,1.05
2023-07-27T15:23:10.485Z,0.82
2023-07-27T15:25:54.053Z,0.98
2023-07-27T15:28:20.706Z,0.90
2023-07-27T15:30:47.363Z,1.00
2023-07-27T15:33:14.082Z,1.05
2023-07-27T15:35:40.818Z,1.02
2023-07-27T15:38:07.451Z,1.08
2023-07-27T15:40:34.044Z,1.00
2023-07-27T15:43:00.706Z,1.00
2023-07-27T15:45:27.418Z,1.00
2023-07-27T15:47:54.032Z,1.23
2023-07-27T15:50:20.672Z,1.30
2023-07-27T15:52:47.290Z,1.20
2023-07-27T15:55:13.915Z,1.17
2023-07-27T15:57:40.715Z,1.02
2023-07-27T16:00:07.803Z,1.20
2023-07-27T16:02:34.633Z,1.00
2023-07-27T16:05:02.853Z,1.20
2023-07-27T16:09:59.844Z,1.10
2023-07-27T16:12:28.248Z,1.15
2023-07-27T16:14:57.061Z,0.93
2023-07-27T16:17:25.147Z,1.08
2023-07-27T16:19:51.777Z,1.10
2023-07-27T16:22:18.737Z,0.93
2023-07-27T16:24:53.343Z,0.98
2023-07-27T16:27:21.547Z,0.90
2023-07-27T16:32:15.254Z,1.15
2023-07-27T16:34:41.858Z,1.10
2023-07-27T16:37:08.561Z,1.30
2023-07-27T16:39:35.256Z,1.23
2023-07-27T16:42:01.980Z,1.00
2023-07-27T16:44:28.674Z,0.98
2023-07-27T16:46:55.721Z,1.70
2023-07-27T16:49:22.455Z,1.00
2023-07-27T16:51:51.557Z,1.30
2023-07-27T16:54:18.579Z,1.20
2023-07-27T16:56:45.329Z,1.20
2023-07-27T16:59:11.994Z,1.10
2023-07-27T17:01:39.664Z,1.10
2023-07-27T17:04:06.512Z,1.10
2023-07-27T17:06:33.530Z,1.33
2023-07-27T17:09:00.602Z,1.57
2023-07-27T17:11:27.222Z,1.10
2023-07-27T17:13:53.783Z,1.13
2023-07-27T17:16:20.389Z,0.90
2023-07-27T17:18:48.400Z,1.05
2023-07-27T17:21:15.581Z,1.23
2023-07-27T17:23:42.285Z,2.15
2023-07-27T17:26:09.138Z,1.10
2023-07-27T17:28:36.334Z,1.30
2023-07-27T17:31:05.003Z,1.63
2023-07-27T17:33:32.232Z,1.40
2023-07-27T17:36:02.701Z,1.40
2023-07-27T17:38:34.005Z,1.20
2023-07-27T17:41:04.635Z,1.20
2023-07-27T17:43:31.867Z,1.20
2023-07-27T17:45:59.146Z,1.35
2023-07-27T17:48:27.403Z,1.00
2023-07-27T17:51:03.599Z,1.15
2023-07-27T17:53:31.785Z,1.08
2023-07-27T17:56:06.058Z,1.13
2023-07-27T17:58:34.001Z,1.05
2023-07-27T18:01:00.875Z,1.23
2023-07-27T18:03:27.664Z,1.02
2023-07-27T18:05:54.395Z,1.30
2023-07-27T18:08:21.103Z,1.33
2023-07-27T18:10:47.886Z,2.05
2023-07-27T18:13:14.545Z,1.38
2023-07-27T18:15:43.342Z,1.17
2023-07-27T18:18:10.311Z,1.20
2023-07-27T18:20:37.131Z,1.10
2023-07-27T18:23:03.809Z,1.20
2023-07-27T18:25:30.421Z,1.20
2023-07-27T18:27:57.092Z,1.00
2023-07-27T18:30:24.729Z,1.10
2023-07-27T18:32:53.445Z,1.00
2023-07-27T18:35:21.799Z,1.10
2023-07-27T18:37:48.587Z,1.20
2023-07-27T18:40:15.281Z,1.08
2023-07-27T18:42:44.301Z,0.95
2023-07-27T18:45:15.243Z,1.10
2023-07-27T18:47:41.971Z,1.10
2023-07-27T18:50:10.256Z,3.95
2023-07-27T18:55:04.011Z,2.25
2023-07-27T18:57:30.652Z,1.50
2023-07-27T18:59:57.464Z,1.60
2023-07-27T19:02:24.098Z,1.52
2023-07-27T19:04:51.071Z,1.40
2023-07-27T19:07:17.668Z,1.50
2023-07-27T19:09:44.425Z,1.80
2023-07-27T19:12:11.137Z,2.00
2023-07-27T19:14:37.985Z,2.13
2023-07-27T19:17:04.976Z,1.42
2023-07-27T19:19:32.209Z,1.77
2023-07-27T19:21:58.877Z,1.33
2023-07-27T19:24:25.489Z,1.30
2023-07-27T19:26:53.961Z,1.48
2023-07-27T19:29:22.702Z,1.23
2023-07-27T19:31:52.438Z,1.30
2023-07-27T19:34:19.371Z,1.20
2023-07-27T19:36:46.065Z,1.60
2023-07-27T19:39:12.748Z,1.50
2023-07-27T19:41:41.045Z,1.33
2023-07-27T19:46:36.715Z,1.52
2023-07-27T19:49:04.035Z,1.40
2023-07-27T19:51:30.707Z,1.60
2023-07-27T19:53:57.326Z,1.20
2023-07-27T19:56:24.006Z,1.33
2023-07-27T19:58:52.765Z,1.52
2023-07-27T20:01:19.524Z,1.40
2023-07-27T20:03:48.619Z,1.45
2023-07-27T20:06:16.654Z,1.20
2023-07-27T20:08:47.902Z,1.45
2023-07-27T20:11:16.367Z,1.40
2023-07-27T20:13:43.392Z,1.55
2023-07-27T20:16:10.273Z,1.98
2023-07-27T20:18:37.226Z,1.92
2023-07-27T20:21:04.751Z,2.90
2023-07-27T20:23:31.497Z,1.52
2023-07-27T20:26:01.470Z,2.08
2023-07-27T20:28:28.282Z,1.50
2023-07-27T20:30:54.911Z,1.20
2023-07-27T20:33:21.579Z,1.40
2023-07-27T20:35:48.210Z,1.38
2023-07-27T20:38:14.808Z,1.65
2023-07-27T20:40:41.491Z,1.70
2023-07-27T20:43:08.130Z,1.20
2023-07-27T20:45:34.938Z,1.80
2023-07-27T20:48:01.682Z,1.38
2023-07-27T20:50:28.322Z,1.50
2023-07-27T20:52:55.298Z,1.50
2023-07-27T20:55:21.988Z,1.40
2023-07-27T20:57:50.975Z,1.33
2023-07-27T21:00:18.870Z,1.50
2023-07-27T21:02:45.671Z,1.40
2023-07-27T21:05:12.464Z,1.20
2023-07-27T21:07:39.069Z,1.50
2023-07-27T21:10:06.612Z,1.30
2023-07-27T21:12:33.258Z,1.30
2023-07-27T21:14:59.935Z,1.20
2023-07-27T21:17:26.630Z,1.30
2023-07-27T21:19:53.375Z,1.40
2023-07-27T21:22:20.122Z,1.27
2023-07-27T21:24:46.692Z,1.20
2023-07-27T21:27:13.293Z,1.35
2023-07-27T21:29:39.898Z,1.33
2023-07-27T21:32:07.019Z,1.33
2023-07-27T21:34:33.600Z,1.20
2023-07-27T21:37:00.202Z,1.30
2023-07-27T21:39:26.838Z,1.27
2023-07-27T21:42:00.000Z,1.40
2023-07-27T21:44:27.445Z,1.23
2023-07-27T21:46:54.354Z,1.63
2023-07-27T21:49:21.068Z,1.20
2023-07-27T21:51:54.660Z,1.10
2023-07-27T21:54:21.297Z,1.52
2023-07-27T21:56:47.876Z,1.10
2023-07-27T21:59:14.495Z,1.20
2023-07-27T22:01:41.133Z,1.10
2023-07-27T22:04:07.739Z,1.40
2023-07-27T22:06:34.520Z,1.38
2023-07-27T22:09:01.387Z,1.25
2023-07-27T22:11:28.020Z,1.40
2023-07-27T22:13:54.619Z,1.00
2023-07-27T22:16:21.311Z,1.20
2023-07-27T22:18:48.033Z,1.20
2023-07-27T22:21:14.985Z,0.98
2023-07-27T22:23:41.603Z,1.00
2023-07-27T22:26:08.248Z,1.20
2023-07-27T22:28:34.880Z,1.23
2023-07-27T22:31:04.026Z,1.10
2023-07-27T22:33:30.794Z,1.10
2023-07-27T22:35:57.603Z,1.23
2023-07-27T22:38:24.199Z,1.23
2023-07-27T22:40:59.432Z,1.02
2023-07-27T22:43:27.064Z,1.20
2023-07-27T22:45:54.693Z,1.20
2023-07-27T22:48:22.153Z,1.10
2023-07-27T22:50:49.497Z,1.20
2023-07-27T22:53:17.061Z,1.25
2023-07-27T22:55:50.195Z,0.95
2023-07-27T22:58:17.373Z,1.00
2023-07-27T23:00:44.014Z,0.90
2023-07-27T23:03:10.651Z,1.15
2023-07-27T23:05:38.751Z,1.15
2023-07-27T23:08:06.256Z,1.60
2023-07-27T23:10:33.527Z,1.00
2023-07-27T23:13:00.777Z,1.27
2023-07-27T23:15:27.447Z,1.20
2023-07-27T23:17:54.101Z,1.00
2023-07-27T23:20:20.803Z,1.10
2023-07-27T23:22:47.396Z,0.80
2023-07-27T23:25:13.988Z,1.08
2023-07-27T23:27:40.714Z,0.90
2023-07-27T23:30:07.890Z,1.10
2023-07-27T23:32:34.652Z,1.20
2023-07-27T23:35:02.545Z,1.10
2023-07-27T23:37:29.289Z,1.15
2023-07-27T23:39:55.915Z,0.95
2023-07-27T23:42:22.776Z,1.17
2023-07-27T23:44:49.559Z,1.13
2023-07-27T23:47:16.127Z,1.10
2023-07-27T23:49:42.779Z,1.23
2023-07-27T23:52:09.404Z,1.15
2023-07-27T23:54:36.016Z,1.17
2023-07-27T23:57:02.657Z,1.00
2023-07-27T23:59:29.284Z,1.10
